sensor_id;sensor_type;location;lat;lon;timestamp;P1;durP1;ratioP1;P2;durP2;ratioP2
28335;SDS011;15592;53.656;7.276;2022-08-18T00:02:25;17.20;;;10.45;;
28335;SDS011;15592;53.656;7.276;2022-08-18T00:04:52;22.17;;;10.27;;
28335;SDS011;15592;53.656;7.276;2022-08-18T00:07:24;19.52;;;11.00;;
28335;SDS011;15592;53.656;7.276;2022-08-18T00:12:24;21.90;;;10.65;;
28335;SDS011;15592;53.656;7.276;2022-08-18T00:14:53;21.52;;;10.68;;
28335;SDS011;15592;53.656;7.276;2022-08-18T00:17:19;22.15;;;9.77;;
28335;SDS011;15592;53.656;7.276;2022-08-18T00:19:45;20.98;;;10.05;;
28335;SDS011;15592;53.656;7.276;2022-08-18T00:22:13;21.48;;;9.90;;
28335;SDS011;15592;53.656;7.276;2022-08-18T00:24:41;19.25;;;9.93;;
28335;SDS011;15592;53.656;7.276;2022-08-18T00:27:07;19.67;;;9.75;;
28335;SDS011;15592;53.656;7.276;2022-08-18T00:29:34;20.05;;;9.60;;
28335;SDS011;15592;53.656;7.276;2022-08-18T00:32:10;19.50;;;9.50;;
28335;SDS011;15592;53.656;7.276;2022-08-18T00:34:37;20.52;;;9.05;;
28335;SDS011;15592;53.656;7.276;2022-08-18T00:37:02;18.60;;;9.13;;
28335;SDS011;15592;53.656;7.276;2022-08-18T00:39:28;20.48;;;9.75;;
28335;SDS011;15592;53.656;7.276;2022-08-18T00:41:54;17.58;;;9.52;;
28335;SDS011;15592;53.656;7.276;2022-08-18T00:44:20;22.85;;;10.75;;
28335;SDS011;15592;53.656;7.276;2022-08-18T00:46:45;22.23;;;10.80;;
28335;SDS011;15592;53.656;7.276;2022-08-18T00:49:11;25.10;;;11.63;;
28335;SDS011;15592;53.656;7.276;2022-08-18T00:51:42;22.77;;;11.10;;
28335;SDS011;15592;53.656;7.276;2022-08-18T00:56:42;21.08;;;11.02;;
28335;SDS011;15592;53.656;7.276;2022-08-18T01:01:39;26.85;;;10.80;;
28335;SDS011;15592;53.656;7.276;2022-08-18T01:04:15;18.45;;;10.25;;
28335;SDS011;15592;53.656;7.276;2022-08-18T01:06:46;17.08;;;10.15;;
28335;SDS011;15592;53.656;7.276;2022-08-18T01:09:21;23.45;;;10.40;;
28335;SDS011;15592;53.656;7.276;2022-08-18T01:11:47;27.63;;;10.60;;
28335;SDS011;15592;53.656;7.276;2022-08-18T01:14:15;19.33;;;10.15;;
28335;SDS011;15592;53.656;7.276;2022-08-18T01:16:42;21.65;;;10.10;;
28335;SDS011;15592;53.656;7.276;2022-08-18T01:19:28;26.55;;;10.68;;
28335;SDS011;15592;53.656;7.276;2022-08-18T01:25:11;21.60;;;11.97;;
28335;SDS011;15592;53.656;7.276;2022-08-18T01:27:57;24.27;;;11.80;;
28335;SDS011;15592;53.656;7.276;2022-08-18T01:30:23;22.23;;;11.93;;
28335;SDS011;15592;53.656;7.276;2022-08-18T01:32:51;26.85;;;12.23;;
28335;SDS011;15592;53.656;7.276;2022-08-18T01:35:17;24.17;;;11.90;;
28335;SDS011;15592;53.656;7.276;2022-08-18T01:37:45;19.15;;;11.07;;
28335;SDS011;15592;53.656;7.276;2022-08-18T01:40:12;20.55;;;12.45;;
28335;SDS011;15592;53.656;7.276;2022-08-18T01:42:39;23.10;;;12.68;;
28335;SDS011;15592;53.656;7.276;2022-08-18T01:45:08;22.55;;;12.65;;
28335;SDS011;15592;53.656;7.276;2022-08-18T01:47:35;29.33;;;13.32;;
28335;SDS011;15592;53.656;7.276;2022-08-18T01:50:01;24.30;;;13.98;;
28335;SDS011;15592;53.656;7.276;2022-08-18T01:52:29;20.58;;;12.98;;
28335;SDS011;15592;53.656;7.276;2022-08-18T01:54:55;28.65;;;13.40;;
28335;SDS011;15592;53.656;7.276;2022-08-18T01:57:22;24.92;;;14.10;;
28335;SDS011;15592;53.656;7.276;2022-08-18T01:59:49;29.30;;;12.93;;
28335;SDS011;15592;53.656;7.276;2022-08-18T02:02:16;29.27;;;11.25;;
28335;SDS011;15592;53.656;7.276;2022-08-18T02:04:46;27.77;;;10.82;;
28335;SDS011;15592;53.656;7.276;2022-08-18T02:07:12;27.30;;;11.63;;
28335;SDS011;15592;53.656;7.276;2022-08-18T02:09:39;23.67;;;11.20;;
28335;SDS011;15592;53.656;7.276;2022-08-18T02:12:06;32.15;;;11.73;;
28335;SDS011;15592;53.656;7.276;2022-08-18T02:14:33;30.13;;;11.45;;
28335;SDS011;15592;53.656;7.276;2022-08-18T02:17:00;28.88;;;10.65;;
28335;SDS011;15592;53.656;7.276;2022-08-18T02:19:27;23.00;;;10.48;;
28335;SDS011;15592;53.656;7.276;2022-08-18T02:22:00;30.08;;;11.02;;
28335;SDS011;15592;53.656;7.276;2022-08-18T02:24:27;24.00;;;10.98;;
28335;SDS011;15592;53.656;7.276;2022-08-18T02:26:53;30.92;;;11.32;;
28335;SDS011;15592;53.656;7.276;2022-08-18T02:29:18;25.48;;;11.27;;
28335;SDS011;15592;53.656;7.276;2022-08-18T02:31:44;25.98;;;10.38;;
28335;SDS011;15592;53.656;7.276;2022-08-18T02:34:10;25.05;;;9.85;;
28335;SDS011;15592;53.656;7.276;2022-08-18T02:36:35;24.15;;;10.52;;
28335;SDS011;15592;53.656;7.276;2022-08-18T02:39:01;24.20;;;10.20;;
28335;SDS011;15592;53.656;7.276;2022-08-18T02:41:27;21.42;;;9.35;;
28335;SDS011;15592;53.656;7.276;2022-08-18T02:43:52;21.95;;;8.95;;
28335;SDS011;15592;53.656;7.276;2022-08-18T02:46:18;31.50;;;9.82;;
28335;SDS011;15592;53.656;7.276;2022-08-18T02:48:44;31.10;;;10.57;;
28335;SDS011;15592;53.656;7.276;2022-08-18T02:51:12;28.42;;;9.32;;
28335;SDS011;15592;53.656;7.276;2022-08-18T02:53:39;24.48;;;9.20;;
28335;SDS011;15592;53.656;7.276;2022-08-18T02:56:11;20.85;;;9.10;;
28335;SDS011;15592;53.656;7.276;2022-08-18T03:01:21;23.05;;;10.75;;
28335;SDS011;15592;53.656;7.276;2022-08-18T03:03:48;25.98;;;10.00;;
28335;SDS011;15592;53.656;7.276;2022-08-18T03:06:15;29.73;;;9.38;;
28335;SDS011;15592;53.656;7.276;2022-08-18T03:08:41;27.33;;;9.55;;
28335;SDS011;15592;53.656;7.276;2022-08-18T03:11:12;32.83;;;10.52;;
28335;SDS011;15592;53.656;7.276;2022-08-18T03:13:39;28.23;;;9.80;;
28335;SDS011;15592;53.656;7.276;2022-08-18T03:16:04;34.63;;;11.38;;
28335;SDS011;15592;53.656;7.276;2022-08-18T03:18:30;27.23;;;11.00;;
28335;SDS011;15592;53.656;7.276;2022-08-18T03:20:56;27.40;;;10.95;;
28335;SDS011;15592;53.656;7.276;2022-08-18T03:23:23;34.72;;;11.23;;
28335;SDS011;15592;53.656;7.276;2022-08-18T03:25:48;29.60;;;11.40;;
28335;SDS011;15592;53.656;7.276;2022-08-18T03:28:15;27.38;;;10.40;;
28335;SDS011;15592;53.656;7.276;2022-08-18T03:30:41;28.38;;;11.80;;
28335;SDS011;15592;53.656;7.276;2022-08-18T03:33:07;29.00;;;11.27;;
28335;SDS011;15592;53.656;7.276;2022-08-18T03:35:34;26.15;;;10.65;;
28335;SDS011;15592;53.656;7.276;2022-08-18T03:38:01;33.85;;;11.88;;
28335;SDS011;15592;53.656;7.276;2022-08-18T03:40:27;28.65;;;10.93;;
28335;SDS011;15592;53.656;7.276;2022-08-18T03:42:52;28.80;;;11.88;;
28335;SDS011;15592;53.656;7.276;2022-08-18T03:45:18;29.02;;;12.20;;
28335;SDS011;15592;53.656;7.276;2022-08-18T03:47:44;29.75;;;12.07;;
28335;SDS011;15592;53.656;7.276;2022-08-18T03:50:10;29.30;;;12.07;;
28335;SDS011;15592;53.656;7.276;2022-08-18T03:52:36;31.27;;;12.50;;
28335;SDS011;15592;53.656;7.276;2022-08-18T03:55:02;28.33;;;12.25;;
28335;SDS011;15592;53.656;7.276;2022-08-18T03:57:29;33.38;;;13.18;;
28335;SDS011;15592;53.656;7.276;2022-08-18T03:59:57;31.45;;;12.57;;
28335;SDS011;15592;53.656;7.276;2022-08-18T04:02:23;28.00;;;12.05;;
28335;SDS011;15592;53.656;7.276;2022-08-18T04:04:48;45.15;;;13.93;;
28335;SDS011;15592;53.656;7.276;2022-08-18T04:07:15;38.78;;;12.93;;
28335;SDS011;15592;53.656;7.276;2022-08-18T04:09:42;33.33;;;12.93;;
28335;SDS011;15592;53.656;7.276;2022-08-18T04:12:09;39.45;;;14.25;;
28335;SDS011;15592;53.656;7.276;2022-08-18T04:14:38;27.10;;;13.18;;
28335;SDS011;15592;53.656;7.276;2022-08-18T04:17:06;28.95;;;12.73;;
28335;SDS011;15592;53.656;7.276;2022-08-18T04:19:32;30.55;;;12.85;;
28335;SDS011;15592;53.656;7.276;2022-08-18T04:22:00;39.50;;;13.45;;
28335;SDS011;15592;53.656;7.276;2022-08-18T04:24:29;33.17;;;14.13;;
28335;SDS011;15592;53.656;7.276;2022-08-18T04:26:57;33.33;;;14.18;;
28335;SDS011;15592;53.656;7.276;2022-08-18T04:29:24;31.77;;;12.82;;
28335;SDS011;15592;53.656;7.276;2022-08-18T04:31:50;30.83;;;12.45;;
28335;SDS011;15592;53.656;7.276;2022-08-18T04:34:17;33.05;;;12.57;;
28335;SDS011;15592;53.656;7.276;2022-08-18T04:36:44;39.38;;;12.48;;
28335;SDS011;15592;53.656;7.276;2022-08-18T04:39:10;33.20;;;11.55;;
28335;SDS011;15592;53.656;7.276;2022-08-18T04:41:37;29.80;;;12.98;;
28335;SDS011;15592;53.656;7.276;2022-08-18T04:44:06;38.88;;;12.45;;
28335;SDS011;15592;53.656;7.276;2022-08-18T04:46:35;33.90;;;12.32;;
28335;SDS011;15592;53.656;7.276;2022-08-18T04:49:04;34.35;;;12.32;;
28335;SDS011;15592;53.656;7.276;2022-08-18T04:51:30;28.52;;;11.38;;
28335;SDS011;15592;53.656;7.276;2022-08-18T04:53:55;34.88;;;11.63;;
28335;SDS011;15592;53.656;7.276;2022-08-18T04:58:54;41.38;;;12.52;;
28335;SDS011;15592;53.656;7.276;2022-08-18T05:01:30;34.55;;;12.25;;
28335;SDS011;15592;53.656;7.276;2022-08-18T05:03:59;36.10;;;11.88;;
28335;SDS011;15592;53.656;7.276;2022-08-18T05:06:26;40.58;;;13.27;;
28335;SDS011;15592;53.656;7.276;2022-08-18T05:08:53;40.03;;;12.85;;
28335;SDS011;15592;53.656;7.276;2022-08-18T05:11:20;38.10;;;12.70;;
28335;SDS011;15592;53.656;7.276;2022-08-18T05:13:47;34.72;;;12.60;;
28335;SDS011;15592;53.656;7.276;2022-08-18T05:16:16;40.97;;;12.80;;
28335;SDS011;15592;53.656;7.276;2022-08-18T05:18:41;31.50;;;12.32;;
28335;SDS011;15592;53.656;7.276;2022-08-18T05:21:07;41.95;;;13.75;;
28335;SDS011;15592;53.656;7.276;2022-08-18T05:23:43;32.75;;;12.40;;
28335;SDS011;15592;53.656;7.276;2022-08-18T05:26:10;36.42;;;12.55;;
28335;SDS011;15592;53.656;7.276;2022-08-18T05:28:40;32.95;;;12.15;;
28335;SDS011;15592;53.656;7.276;2022-08-18T05:31:17;36.17;;;12.32;;
28335;SDS011;15592;53.656;7.276;2022-08-18T05:33:44;38.03;;;12.10;;
28335;SDS011;15592;53.656;7.276;2022-08-18T05:41:25;37.90;;;12.18;;
28335;SDS011;15592;53.656;7.276;2022-08-18T05:43:55;33.88;;;10.98;;
28335;SDS011;15592;53.656;7.276;2022-08-18T05:46:23;33.58;;;11.20;;
28335;SDS011;15592;53.656;7.276;2022-08-18T05:48:57;35.28;;;11.63;;
28335;SDS011;15592;53.656;7.276;2022-08-18T05:51:34;33.85;;;11.27;;
28335;SDS011;15592;53.656;7.276;2022-08-18T05:54:10;44.00;;;12.07;;
28335;SDS011;15592;53.656;7.276;2022-08-18T05:56:56;34.45;;;11.57;;
28335;SDS011;15592;53.656;7.276;2022-08-18T05:59:27;33.63;;;10.07;;
28335;SDS011;15592;53.656;7.276;2022-08-18T06:01:59;36.30;;;11.10;;
28335;SDS011;15592;53.656;7.276;2022-08-18T06:04:49;29.27;;;10.13;;
28335;SDS011;15592;53.656;7.276;2022-08-18T06:07:29;28.15;;;10.80;;
28335;SDS011;15592;53.656;7.276;2022-08-18T06:09:56;28.30;;;11.48;;
28335;SDS011;15592;53.656;7.276;2022-08-18T06:17:36;23.67;;;10.70;;
28335;SDS011;15592;53.656;7.276;2022-08-18T06:26:01;31.00;;;9.45;;
28335;SDS011;15592;53.656;7.276;2022-08-18T06:31:15;24.35;;;9.93;;
28335;SDS011;15592;53.656;7.276;2022-08-18T06:34:00;31.20;;;9.15;;
28335;SDS011;15592;53.656;7.276;2022-08-18T06:41:50;29.10;;;9.50;;
28335;SDS011;15592;53.656;7.276;2022-08-18T06:49:44;27.25;;;9.98;;
28335;SDS011;15592;53.656;7.276;2022-08-18T06:54:54;30.85;;;10.07;;
28335;SDS011;15592;53.656;7.276;2022-08-18T06:57:32;31.80;;;10.18;;
28335;SDS011;15592;53.656;7.276;2022-08-18T07:00:08;29.52;;;9.48;;
28335;SDS011;15592;53.656;7.276;2022-08-18T07:02:42;24.33;;;9.55;;
28335;SDS011;15592;53.656;7.276;2022-08-18T07:05:20;29.92;;;9.00;;
28335;SDS011;15592;53.656;7.276;2022-08-18T07:07:59;34.72;;;9.48;;
28335;SDS011;15592;53.656;7.276;2022-08-18T07:10:32;37.08;;;10.95;;
28335;SDS011;15592;53.656;7.276;2022-08-18T07:13:07;39.40;;;10.67;;
28335;SDS011;15592;53.656;7.276;2022-08-18T07:15:39;45.28;;;9.82;;
28335;SDS011;15592;53.656;7.276;2022-08-18T07:18:06;29.02;;;9.73;;
28335;SDS011;15592;53.656;7.276;2022-08-18T07:26:11;27.38;;;9.38;;
28335;SDS011;15592;53.656;7.276;2022-08-18T07:34:41;22.60;;;9.07;;
28335;SDS011;15592;53.656;7.276;2022-08-18T07:37:13;23.38;;;8.93;;
28335;SDS011;15592;53.656;7.276;2022-08-18T07:39:50;30.33;;;8.57;;
28335;SDS011;15592;53.656;7.276;2022-08-18T07:42:34;24.17;;;8.35;;
28335;SDS011;15592;53.656;7.276;2022-08-18T07:45:15;24.05;;;8.68;;
28335;SDS011;15592;53.656;7.276;2022-08-18T07:50:37;19.95;;;8.07;;
28335;SDS011;15592;53.656;7.276;2022-08-18T07:54:20;23.02;;;8.77;;
28335;SDS011;15592;53.656;7.276;2022-08-18T07:56:45;21.63;;;8.80;;
28335;SDS011;15592;53.656;7.276;2022-08-18T08:05:00;22.95;;;8.65;;
28335;SDS011;15592;53.656;7.276;2022-08-18T08:07:33;23.75;;;8.27;;
28335;SDS011;15592;53.656;7.276;2022-08-18T08:15:36;28.27;;;9.48;;
28335;SDS011;15592;53.656;7.276;2022-08-18T08:18:26;21.27;;;8.40;;
28335;SDS011;15592;53.656;7.276;2022-08-18T08:21:05;17.67;;;9.15;;
28335;SDS011;15592;53.656;7.276;2022-08-18T08:24:09;18.23;;;8.77;;
28335;SDS011;15592;53.656;7.276;2022-08-18T08:32:04;18.92;;;8.48;;
28335;SDS011;15592;53.656;7.276;2022-08-18T08:34:51;19.42;;;8.68;;
28335;SDS011;15592;53.656;7.276;2022-08-18T08:40:17;18.00;;;8.48;;
28335;SDS011;15592;53.656;7.276;2022-08-18T08:42:51;21.17;;;9.23;;
28335;SDS011;15592;53.656;7.276;2022-08-18T08:45:24;21.33;;;8.18;;
28335;SDS011;15592;53.656;7.276;2022-08-18T08:50:26;19.67;;;8.27;;
28335;SDS011;15592;53.656;7.276;2022-08-18T08:55:36;19.80;;;8.57;;
28335;SDS011;15592;53.656;7.276;2022-08-18T08:58:19;15.02;;;7.72;;
28335;SDS011;15592;53.656;7.276;2022-08-18T09:00:52;21.00;;;8.63;;
28335;SDS011;15592;53.656;7.276;2022-08-18T09:08:31;19.10;;;8.63;;
28335;SDS011;15592;53.656;7.276;2022-08-18T09:16:48;20.92;;;7.65;;
28335;SDS011;15592;53.656;7.276;2022-08-18T09:19:44;17.50;;;7.20;;
28335;SDS011;15592;53.656;7.276;2022-08-18T09:24:55;19.55;;;6.43;;
28335;SDS011;15592;53.656;7.276;2022-08-18T09:27:38;19.58;;;6.35;;
28335;SDS011;15592;53.656;7.276;2022-08-18T09:41:53;23.52;;;6.22;;
28335;SDS011;15592;53.656;7.276;2022-08-18T09:47:11;19.67;;;5.93;;
28335;SDS011;15592;53.656;7.276;2022-08-18T09:57:27;16.98;;;5.50;;
28335;SDS011;15592;53.656;7.276;2022-08-18T10:00:25;17.55;;;6.05;;
28335;SDS011;15592;53.656;7.276;2022-08-18T10:05:27;19.05;;;5.90;;
28335;SDS011;15592;53.656;7.276;2022-08-18T10:34:13;12.45;;;5.10;;
28335;SDS011;15592;53.656;7.276;2022-08-18T10:36:59;9.32;;;4.25;;
28335;SDS011;15592;53.656;7.276;2022-08-18T10:42:05;11.57;;;4.90;;
28335;SDS011;15592;53.656;7.276;2022-08-18T10:44:44;12.75;;;5.10;;
28335;SDS011;15592;53.656;7.276;2022-08-18T10:47:26;14.68;;;5.68;;
28335;SDS011;15592;53.656;7.276;2022-08-18T10:49:54;11.95;;;4.93;;
28335;SDS011;15592;53.656;7.276;2022-08-18T10:55:59;9.10;;;4.47;;
28335;SDS011;15592;53.656;7.276;2022-08-18T11:01:08;12.48;;;5.25;;
28335;SDS011;15592;53.656;7.276;2022-08-18T11:06:23;11.57;;;4.82;;
28335;SDS011;15592;53.656;7.276;2022-08-18T11:08:51;9.38;;;4.10;;
28335;SDS011;15592;53.656;7.276;2022-08-18T11:17:00;10.65;;;4.75;;
28335;SDS011;15592;53.656;7.276;2022-08-18T11:19:47;9.45;;;4.03;;
28335;SDS011;15592;53.656;7.276;2022-08-18T11:22:26;11.68;;;4.53;;
28335;SDS011;15592;53.656;7.276;2022-08-18T11:24:58;8.55;;;4.10;;
28335;SDS011;15592;53.656;7.276;2022-08-18T11:27:29;7.22;;;3.90;;
28335;SDS011;15592;53.656;7.276;2022-08-18T11:30:02;9.05;;;3.72;;
28335;SDS011;15592;53.656;7.276;2022-08-18T11:32:30;5.57;;;3.50;;
28335;SDS011;15592;53.656;7.276;2022-08-18T11:39:48;6.32;;;3.78;;
28335;SDS011;15592;53.656;7.276;2022-08-18T11:42:17;7.63;;;3.58;;
28335;SDS011;15592;53.656;7.276;2022-08-18T11:44:50;7.32;;;3.53;;
28335;SDS011;15592;53.656;7.276;2022-08-18T11:47:19;8.82;;;3.63;;
28335;SDS011;15592;53.656;7.276;2022-08-18T11:50:06;9.68;;;3.95;;
28335;SDS011;15592;53.656;7.276;2022-08-18T11:52:51;12.75;;;3.88;;
28335;SDS011;15592;53.656;7.276;2022-08-18T11:55:27;8.45;;;3.58;;
28335;SDS011;15592;53.656;7.276;2022-08-18T11:57:57;8.80;;;3.70;;
28335;SDS011;15592;53.656;7.276;2022-08-18T12:05:57;11.68;;;3.90;;
28335;SDS011;15592;53.656;7.276;2022-08-18T12:08:34;9.35;;;4.00;;
28335;SDS011;15592;53.656;7.276;2022-08-18T12:11:19;9.05;;;3.75;;
28335;SDS011;15592;53.656;7.276;2022-08-18T12:13:47;5.75;;;3.47;;
28335;SDS011;15592;53.656;7.276;2022-08-18T12:16:39;10.75;;;3.58;;
28335;SDS011;15592;53.656;7.276;2022-08-18T12:19:08;7.90;;;3.47;;
28335;SDS011;15592;53.656;7.276;2022-08-18T12:21:40;5.95;;;3.25;;
28335;SDS011;15592;53.656;7.276;2022-08-18T12:24:29;5.45;;;2.90;;
28335;SDS011;15592;53.656;7.276;2022-08-18T12:26:57;7.93;;;3.35;;
28335;SDS011;15592;53.656;7.276;2022-08-18T12:29:23;8.48;;;3.20;;
28335;SDS011;15592;53.656;7.276;2022-08-18T12:31:50;6.35;;;3.10;;
28335;SDS011;15592;53.656;7.276;2022-08-18T12:34:21;4.57;;;2.80;;
28335;SDS011;15592;53.656;7.276;2022-08-18T12:36:53;10.15;;;3.15;;
28335;SDS011;15592;53.656;7.276;2022-08-18T12:39:20;6.88;;;3.08;;
28335;SDS011;15592;53.656;7.276;2022-08-18T12:41:46;5.50;;;3.00;;
28335;SDS011;15592;53.656;7.276;2022-08-18T12:44:24;6.13;;;3.15;;
28335;SDS011;15592;53.656;7.276;2022-08-18T12:46:50;7.55;;;3.03;;
28335;SDS011;15592;53.656;7.276;2022-08-18T12:49:17;5.82;;;3.08;;
28335;SDS011;15592;53.656;7.276;2022-08-18T12:51:48;10.30;;;3.60;;
28335;SDS011;15592;53.656;7.276;2022-08-18T12:54:14;6.15;;;3.00;;
28335;SDS011;15592;53.656;7.276;2022-08-18T12:56:41;4.90;;;3.10;;
28335;SDS011;15592;53.656;7.276;2022-08-18T12:59:08;6.00;;;3.00;;
28335;SDS011;15592;53.656;7.276;2022-08-18T13:01:35;6.15;;;3.10;;
28335;SDS011;15592;53.656;7.276;2022-08-18T13:04:02;6.43;;;3.35;;
28335;SDS011;15592;53.656;7.276;2022-08-18T13:06:30;9.00;;;3.40;;
28335;SDS011;15592;53.656;7.276;2022-08-18T13:08:58;5.63;;;3.10;;
28335;SDS011;15592;53.656;7.276;2022-08-18T13:11:24;4.57;;;3.10;;
28335;SDS011;15592;53.656;7.276;2022-08-18T13:13:50;6.60;;;3.20;;
28335;SDS011;15592;53.656;7.276;2022-08-18T13:16:17;3.92;;;2.72;;
28335;SDS011;15592;53.656;7.276;2022-08-18T13:18:43;4.28;;;2.67;;
28335;SDS011;15592;53.656;7.276;2022-08-18T13:21:14;4.68;;;2.80;;
28335;SDS011;15592;53.656;7.276;2022-08-18T13:23:41;3.05;;;2.72;;
28335;SDS011;15592;53.656;7.276;2022-08-18T13:26:08;5.53;;;2.90;;
28335;SDS011;15592;53.656;7.276;2022-08-18T13:31:49;6.60;;;3.05;;
28335;SDS011;15592;53.656;7.276;2022-08-18T13:34:21;6.43;;;3.00;;
28335;SDS011;15592;53.656;7.276;2022-08-18T13:36:47;4.68;;;2.63;;
28335;SDS011;15592;53.656;7.276;2022-08-18T13:39:13;5.70;;;2.88;;
28335;SDS011;15592;53.656;7.276;2022-08-18T13:41:43;4.70;;;2.50;;
28335;SDS011;15592;53.656;7.276;2022-08-18T13:44:11;5.95;;;2.80;;
28335;SDS011;15592;53.656;7.276;2022-08-18T13:46:39;5.60;;;2.90;;
28335;SDS011;15592;53.656;7.276;2022-08-18T13:49:10;6.07;;;2.90;;
28335;SDS011;15592;53.656;7.276;2022-08-18T13:51:39;4.45;;;2.63;;
28335;SDS011;15592;53.656;7.276;2022-08-18T13:54:06;3.70;;;2.70;;
28335;SDS011;15592;53.656;7.276;2022-08-18T13:56:33;4.15;;;2.75;;
28335;SDS011;15592;53.656;7.276;2022-08-18T13:58:59;4.25;;;2.70;;
28335;SDS011;15592;53.656;7.276;2022-08-18T14:01:32;5.18;;;2.65;;
28335;SDS011;15592;53.656;7.276;2022-08-18T14:03:58;2.95;;;2.50;;
28335;SDS011;15592;53.656;7.276;2022-08-18T14:07:24;3.65;;;2.72;;
28335;SDS011;15592;53.656;7.276;2022-08-18T14:09:40;7.20;;;2.80;;
28335;SDS011;15592;53.656;7.276;2022-08-18T14:12:32;3.97;;;2.60;;
28335;SDS011;15592;53.656;7.276;2022-08-18T14:15:06;4.88;;;2.40;;
28335;SDS011;15592;53.656;7.276;2022-08-18T14:18:06;3.78;;;2.42;;
28335;SDS011;15592;53.656;7.276;2022-08-18T14:20:32;4.28;;;2.50;;
28335;SDS011;15592;53.656;7.276;2022-08-18T14:23:20;4.95;;;2.42;;
28335;SDS011;15592;53.656;7.276;2022-08-18T14:26:04;4.20;;;2.60;;
28335;SDS011;15592;53.656;7.276;2022-08-18T14:31:50;4.22;;;2.20;;
28335;SDS011;15592;53.656;7.276;2022-08-18T14:34:17;5.68;;;2.65;;
28335;SDS011;15592;53.656;7.276;2022-08-18T14:36:42;5.22;;;2.42;;
28335;SDS011;15592;53.656;7.276;2022-08-18T14:39:09;6.05;;;2.40;;
28335;SDS011;15592;53.656;7.276;2022-08-18T14:41:35;3.15;;;2.50;;
28335;SDS011;15592;53.656;7.276;2022-08-18T14:44:08;4.50;;;2.40;;
28335;SDS011;15592;53.656;7.276;2022-08-18T14:49:27;5.13;;;2.20;;
28335;SDS011;15592;53.656;7.276;2022-08-18T14:51:56;3.72;;;2.50;;
28335;SDS011;15592;53.656;7.276;2022-08-18T14:54:22;4.25;;;2.22;;
28335;SDS011;15592;53.656;7.276;2022-08-18T14:56:48;4.53;;;2.30;;
28335;SDS011;15592;53.656;7.276;2022-08-18T15:05:58;3.92;;;2.33;;
28335;SDS011;15592;53.656;7.276;2022-08-18T15:08:35;5.00;;;2.30;;
28335;SDS011;15592;53.656;7.276;2022-08-18T15:11:03;3.47;;;2.13;;
28335;SDS011;15592;53.656;7.276;2022-08-18T15:13:30;2.95;;;1.80;;
28335;SDS011;15592;53.656;7.276;2022-08-18T15:15:56;4.70;;;2.30;;
28335;SDS011;15592;53.656;7.276;2022-08-18T15:21:38;4.63;;;2.40;;
28335;SDS011;15592;53.656;7.276;2022-08-18T15:24:40;3.28;;;2.40;;
28335;SDS011;15592;53.656;7.276;2022-08-18T15:27:32;3.63;;;1.92;;
28335;SDS011;15592;53.656;7.276;2022-08-18T15:30:03;3.72;;;2.05;;
28335;SDS011;15592;53.656;7.276;2022-08-18T15:32:30;2.58;;;1.95;;
28335;SDS011;15592;53.656;7.276;2022-08-18T15:35:02;2.67;;;2.00;;
28335;SDS011;15592;53.656;7.276;2022-08-18T15:37:28;3.42;;;2.00;;
28335;SDS011;15592;53.656;7.276;2022-08-18T15:40:12;3.63;;;2.13;;
28335;SDS011;15592;53.656;7.276;2022-08-18T15:42:54;3.72;;;2.13;;
28335;SDS011;15592;53.656;7.276;2022-08-18T15:45:22;3.78;;;2.35;;
28335;SDS011;15592;53.656;7.276;2022-08-18T15:50:37;2.92;;;1.92;;
28335;SDS011;15592;53.656;7.276;2022-08-18T15:53:03;4.53;;;2.20;;
28335;SDS011;15592;53.656;7.276;2022-08-18T15:55:36;2.53;;;1.92;;
28335;SDS011;15592;53.656;7.276;2022-08-18T15:58:03;4.03;;;2.33;;
28335;SDS011;15592;53.656;7.276;2022-08-18T16:00:29;2.20;;;1.95;;
28335;SDS011;15592;53.656;7.276;2022-08-18T16:03:15;3.58;;;2.38;;
28335;SDS011;15592;53.656;7.276;2022-08-18T16:05:45;4.28;;;2.30;;
28335;SDS011;15592;53.656;7.276;2022-08-18T16:08:12;2.80;;;2.20;;
28335;SDS011;15592;53.656;7.276;2022-08-18T16:10:39;3.53;;;2.15;;
28335;SDS011;15592;53.656;7.276;2022-08-18T16:13:05;4.35;;;2.20;;
28335;SDS011;15592;53.656;7.276;2022-08-18T16:15:33;4.05;;;2.33;;
28335;SDS011;15592;53.656;7.276;2022-08-18T16:18:02;5.40;;;2.35;;
28335;SDS011;15592;53.656;7.276;2022-08-18T16:20:28;6.18;;;2.10;;
28335;SDS011;15592;53.656;7.276;2022-08-18T16:22:55;2.67;;;2.22;;
28335;SDS011;15592;53.656;7.276;2022-08-18T16:25:24;2.38;;;2.08;;
28335;SDS011;15592;53.656;7.276;2022-08-18T16:27:51;2.17;;;1.80;;
28335;SDS011;15592;53.656;7.276;2022-08-18T16:30:22;3.13;;;2.30;;
28335;SDS011;15592;53.656;7.276;2022-08-18T16:32:49;2.65;;;2.00;;
28335;SDS011;15592;53.656;7.276;2022-08-18T16:35:15;6.07;;;2.20;;
28335;SDS011;15592;53.656;7.276;2022-08-18T16:37:42;3.85;;;2.47;;
28335;SDS011;15592;53.656;7.276;2022-08-18T16:40:10;3.40;;;2.42;;
28335;SDS011;15592;53.656;7.276;2022-08-18T16:42:37;3.65;;;2.15;;
28335;SDS011;15592;53.656;7.276;2022-08-18T16:45:03;3.08;;;2.10;;
28335;SDS011;15592;53.656;7.276;2022-08-18T16:47:30;2.47;;;1.90;;
28335;SDS011;15592;53.656;7.276;2022-08-18T16:50:01;4.22;;;2.25;;
28335;SDS011;15592;53.656;7.276;2022-08-18T16:52:29;2.78;;;1.77;;
28335;SDS011;15592;53.656;7.276;2022-08-18T16:54:56;2.15;;;1.77;;
28335;SDS011;15592;53.656;7.276;2022-08-18T16:57:22;3.25;;;2.10;;
28335;SDS011;15592;53.656;7.276;2022-08-18T17:00:07;2.42;;;2.05;;
28335;SDS011;15592;53.656;7.276;2022-08-18T17:02:52;3.33;;;2.35;;
28335;SDS011;15592;53.656;7.276;2022-08-18T17:05:37;3.05;;;2.47;;
28335;SDS011;15592;53.656;7.276;2022-08-18T17:08:02;3.03;;;2.50;;
28335;SDS011;15592;53.656;7.276;2022-08-18T17:10:29;2.83;;;2.25;;
28335;SDS011;15592;53.656;7.276;2022-08-18T17:13:01;6.50;;;2.63;;
28335;SDS011;15592;53.656;7.276;2022-08-18T17:15:28;4.30;;;2.00;;
28335;SDS011;15592;53.656;7.276;2022-08-18T17:17:55;2.38;;;2.10;;
28335;SDS011;15592;53.656;7.276;2022-08-18T17:20:20;2.05;;;1.88;;
28335;SDS011;15592;53.656;7.276;2022-08-18T17:22:46;3.47;;;2.08;;
28335;SDS011;15592;53.656;7.276;2022-08-18T17:25:12;2.45;;;2.17;;
28335;SDS011;15592;53.656;7.276;2022-08-18T17:27:43;3.10;;;2.20;;
28335;SDS011;15592;53.656;7.276;2022-08-18T17:30:13;2.60;;;2.25;;
28335;SDS011;15592;53.656;7.276;2022-08-18T17:32:43;3.07;;;2.20;;
28335;SDS011;15592;53.656;7.276;2022-08-18T17:37:54;5.20;;;2.60;;
28335;SDS011;15592;53.656;7.276;2022-08-18T17:40:43;2.80;;;2.15;;
28335;SDS011;15592;53.656;7.276;2022-08-18T17:43:14;6.28;;;2.65;;
28335;SDS011;15592;53.656;7.276;2022-08-18T17:45:42;4.07;;;2.40;;
28335;SDS011;15592;53.656;7.276;2022-08-18T17:48:17;3.80;;;2.13;;
28335;SDS011;15592;53.656;7.276;2022-08-18T17:50:47;3.72;;;2.33;;
28335;SDS011;15592;53.656;7.276;2022-08-18T17:53:44;3.45;;;2.38;;
28335;SDS011;15592;53.656;7.276;2022-08-18T17:56:15;3.65;;;2.55;;
28335;SDS011;15592;53.656;7.276;2022-08-18T18:01:21;3.75;;;2.55;;
28335;SDS011;15592;53.656;7.276;2022-08-18T18:03:48;5.32;;;3.03;;
28335;SDS011;15592;53.656;7.276;2022-08-18T18:06:22;4.35;;;2.50;;
28335;SDS011;15592;53.656;7.276;2022-08-18T18:09:00;2.85;;;2.50;;
28335;SDS011;15592;53.656;7.276;2022-08-18T18:11:52;5.43;;;2.90;;
28335;SDS011;15592;53.656;7.276;2022-08-18T18:19:50;4.45;;;2.72;;
28335;SDS011;15592;53.656;7.276;2022-08-18T18:22:36;3.63;;;2.63;;
28335;SDS011;15592;53.656;7.276;2022-08-18T18:25:10;4.20;;;2.60;;
28335;SDS011;15592;53.656;7.276;2022-08-18T18:27:56;5.00;;;2.97;;
28335;SDS011;15592;53.656;7.276;2022-08-18T18:30:22;5.05;;;3.30;;
28335;SDS011;15592;53.656;7.276;2022-08-18T18:33:03;4.68;;;3.00;;